Lake Hughes, CA (93532)

6:32 PM PDT on September 21, 2014 (GMT -0700)
TWDY | Change Station
CLOSE
Current Station
Personal Weather Station
Location: Lake Hughes, CA
Elevation: 3885 ft
Nearby Weather Stations

Elev 3885 ft 34.72 °N, 118.59 °W | Updated 6 minutes ago

Clear
Clear
71.9 °F
Feels Like 77 °F
N
5.0
Wind Variable Wind from NNW
Gusts 8.0 mph

Today
High -- | Low -- °F
--% Chance of Precip.
Yesterday
High -- | Low -- °F
Precip. -- in
6:41 AM 6:52 PM
Waning Crescent, 4% visible
Pressure 29.95 in
Visibility 10.0 miles
Clouds Clear
Heat Index 77 °F
Dew Point 48 °F
Humidity 43%
Rainfall 0.00 in
Snow Depth 1 in , 0 in , 0 in
UV 1 out of 12
Pollen 7.20 out of 12
Ozone Good
PM2.5 Good
Flu Activity Not available.
METAR KSDB 220048Z AUTO 22011KT 10SM CLR 23/07 A3010 RMK AO2 SLP142 T02330067

More Conditions Fewer Conditions

Pressure 29.95 in
Visibility 10.0 miles
Clouds Clear
Heat Index 77 °F
Dew Point 48 °F
Humidity 43%
Rainfall 0.00 in
Snow Depth 1 in , 0 in , 0 in
UV 1 out of 12
Pollen 7.20 out of 12
Ozone Good
PM2.5 Good
Flu Activity Not available.
METAR KSDB 220048Z AUTO 22011KT 10SM CLR 23/07 A3010 RMK AO2 SLP142 T02330067

More Conditions Fewer Conditions

10-Day Weather Forecast

Almanac

Astronomy

Sep. 21, 2014 Rise Set
Actual Time 6:41 AM PDT 6:52 PM PDT
Civil Twilight 6:16 AM PDT 7:17 PM PDT
Nautical Twilight 5:46 AM PDT 7:46 PM PDT
Astronomical Twilight 5:17 AM PDT 8:16 PM PDT
Moon 4:24 AM PDT (9/21) 5:27 PM PDT (9/21)
Length of Visible Light 13h 01m
Length of Day
12h 10m
Tomorrow will be 2m 9s shorter.
Waning Crescent, 4% of the Moon is Illuminated
Today
Waning Crescent
Sep 24
New
Oct 1
First Quarter
Oct 8
Full
Oct 15
Last Quarter

Today's Extremes

State Highs State Lows

Community

WunderPhotos

Upload Photos

1,755,346 photos uploaded!

WunderBlogs® & News

Nearby

Air Quality

  Air Quality AQ Index Pollutant
Yesterday Moderate
PM2.5
Yesterday Good
OZONE
Current Good
OZONE
Current Good
PM2.5
Monday Moderate
OZONE
Monday Good
PM10
Monday Good
CO
Monday Good
NO2

Snow Depth

Station Depth Elevation
Leavitt Meadows 1 in 7200 ft
Monitor Pass 0 in 8350 ft
Adin Mountain 0 in 6200 ft
Echo Peak 0 in 7800 ft
Rubicon #2 0 in 7500 ft

Earthquake Activity

City Distance Mag. Time & Date
Inyokern, California 101 miles 3.1 5:33 PM PDT
2014-09-19
Aguanga, California 131 miles 2.5 1:38 AM PDT
2014-09-19
Corcoran, California 113 miles 2.9 3:59 PM PDT
2014-09-18
Minimum magnitude displayed is 2.5.

Coastal Water Temperatures

Place Temperature
No Stations Reporting

Nearby Weather Stations